Time;durP1;ratioP1;P1;durP2;ratioP2;P2;SDS_P1;SDS_P2;PMS_P1;PMS_P2;Temp;Humidity;BMP_temperature;BMP_pressure;BME280_temperature;BME280_humidity;BME280_pressure;Samples;Min_cycle;Max_cycle;Signal;HPM_P1;HPM_P2
2021/12/03 00:00:37;;;;;;;2.33;0.40;;;2.00;99.90;;;;;;5099749;28;20574;-65
2021/12/03 00:03:03;;;;;;;;;;;1.70;99.90;;;;;;5118003;28;20058;-65
2021/12/03 00:05:29;;;;;;;1.60;0.40;;;4.00;99.90;;;;;;5098669;28;19923;-65
2021/12/03 00:07:55;;;;;;;0.77;0.50;;;1.70;99.90;;;;;;5117354;28;20035;-65
2021/12/03 00:10:24;;;;;;;0.82;0.40;;;2.60;99.90;;;;;;5099290;28;20422;-65
2021/12/03 00:12:51;;;;;;;1.38;0.40;;;1.60;99.90;;;;;;5117386;28;20048;-65
2021/12/03 00:15:17;;;;;;;1.58;0.40;;;1.50;99.90;;;;;;5117039;28;20396;-65
2021/12/03 00:17:43;;;;;;;1.67;0.45;;;1.70;99.90;;;;;;5117371;28;20059;-65
2021/12/03 00:20:13;;;;;;;1.95;0.80;;;2.70;99.90;;;;;;5117289;28;20047;-65
2021/12/03 00:22:40;;;;;;;2.95;0.60;;;1.70;99.90;;;;;;5082310;28;20047;-65
2021/12/03 00:25:06;;;;;;;2.88;0.55;;;1.50;99.90;;;;;;5117195;28;20416;-65
2021/12/03 00:27:32;;;;;;;4.57;0.50;;;1.70;99.90;;;;;;5117319;28;20044;-65
2021/12/03 00:29:58;;;;;;;1.67;0.50;;;1.70;99.90;;;;;;5116477;28;20066;-65
2021/12/03 00:32:24;;;;;;;2.65;0.50;;;1.40;99.90;;;;;;5081754;28;20047;-65
2021/12/03 00:34:49;;;;;;;2.35;0.50;;;2.80;99.90;;;;;;5116917;28;20051;-65
2021/12/03 00:37:15;;;;;;;2.10;0.50;;;1.70;99.90;;;;;;5098031;28;20039;-65
2021/12/03 00:39:41;;;;;;;1.80;0.50;;;3.30;99.90;;;;;;5116877;28;20056;-65
2021/12/03 00:42:07;;;;;;;3.28;0.93;;;1.80;99.90;;;;;;5098871;28;20136;-65
2021/12/03 00:44:33;;;;;;;1.77;0.60;;;1.70;99.90;;;;;;5117257;28;20441;-65
2021/12/03 00:46:59;;;;;;;1.20;0.50;;;1.70;99.90;;;;;;5116604;28;20035;-65
2021/12/03 00:49:26;;;;;;;1.23;0.40;;;1.50;99.90;;;;;;5098568;28;20039;-65
2021/12/03 00:51:52;;;;;;;3.78;0.63;;;1.40;99.90;;;;;;5081311;28;20484;-65
2021/12/03 00:54:18;;;;;;;3.25;0.70;;;1.70;99.90;;;;;;5116151;28;20092;-65
2021/12/03 00:56:44;;;;;;;1.38;0.63;;;2.70;99.90;;;;;;5116773;28;20039;-65
2021/12/03 00:59:09;;;;;;;1.42;0.60;;;3.00;99.90;;;;;;5098405;28;20052;-65
2021/12/03 01:01:36;;;;;;;2.35;0.80;;;3.80;99.90;;;;;;5116542;28;20118;-65
2021/12/03 01:04:02;;;;;;;1.63;0.50;;;1.40;99.90;;;;;;5116398;28;20053;-65
2021/12/03 01:06:28;;;;;;;3.92;0.88;;;1.70;99.90;;;;;;5081217;28;20050;-65
2021/12/03 01:08:54;;;;;;;2.05;0.60;;;2.20;99.90;;;;;;5116244;28;20057;-65
2021/12/03 01:11:20;;;;;;;1.80;0.50;;;3.70;99.90;;;;;;5098017;28;20067;-65
2021/12/03 01:13:46;;;;;;;1.85;0.60;;;2.70;99.90;;;;;;5098343;28;20050;-65
2021/12/03 01:16:14;;;;;;;4.07;0.63;;;1.30;99.90;;;;;;5116163;28;20047;-65
2021/12/03 01:18:41;;;;;;;3.75;0.70;;;1.70;99.90;;;;;;5116133;28;20048;-65
2021/12/03 01:21:08;;;;;;;1.42;0.68;;;1.70;99.90;;;;;;5116190;28;20088;-65
2021/12/03 01:23:34;;;;;;;3.35;0.70;;;1.70;99.90;;;;;;5116017;28;20174;-65
2021/12/03 01:26:01;;;;;;;2.50;0.70;;;1.60;99.90;;;;;;5097988;28;20410;-65
2021/12/03 01:28:27;;;;;;;3.67;0.70;;;2.30;99.90;;;;;;5097970;28;20083;-65
2021/12/03 01:30:54;;;;;;;3.08;0.70;;;1.70;99.90;;;;;;5115802;28;20117;-65
2021/12/03 01:33:20;;;;;;;1.45;0.70;;;1.40;99.90;;;;;;5115927;28;20043;-65
2021/12/03 01:35:47;;;;;;;1.48;0.73;;;3.10;99.90;;;;;;5115116;28;20453;-65
2021/12/03 01:38:13;;;;;;;2.67;0.80;;;1.90;99.90;;;;;;5097968;28;20054;-65
2021/12/03 01:40:40;;;;;;;1.65;0.70;;;1.50;99.90;;;;;;5115371;28;20491;-65
2021/12/03 01:43:08;;;;;;;3.40;0.90;;;2.00;99.90;;;;;;5097807;28;20111;-65
2021/12/03 01:45:37;;;;;;;2.67;0.88;;;1.60;99.90;;;;;;5115546;28;20046;-65
2021/12/03 01:48:03;;;;;;;2.60;0.80;;;2.80;99.90;;;;;;5115360;28;20036;-65
2021/12/03 01:50:39;;;;;;;1.95;0.80;;;1.70;99.90;;;;;;5114943;28;20130;-65
2021/12/03 01:53:06;;;;;;;1.42;0.77;;;1.60;99.90;;;;;;5097447;28;20060;-65
2021/12/03 01:55:33;;;;;;;4.30;0.95;;;1.30;99.90;;;;;;5080506;28;20052;-65
2021/12/03 01:57:59;;;;;;;6.85;1.00;;;1.90;99.90;;;;;;5115332;28;20514;-65
2021/12/03 02:00:32;;;;;;;2.17;0.80;;;3.40;99.90;;;;;;5115390;28;20183;-62
2021/12/03 02:02:59;;;;;;;1.42;0.80;;;1.70;99.90;;;;;;5115654;28;20048;-62
2021/12/03 02:05:25;;;;;;;2.17;0.70;;;1.10;99.90;;;;;;5115257;28;20066;-62
2021/12/03 02:07:51;;;;;;;2.33;0.80;;;1.60;99.90;;;;;;5080360;28;20044;-62
2021/12/03 02:10:19;;;;;;;2.08;1.00;;;2.50;99.90;;;;;;5096980;28;20075;-62
2021/12/03 02:12:45;;;;;;;3.80;1.48;;;1.60;99.90;;;;;;5080342;28;20047;-62
2021/12/03 02:15:12;;;;;;;2.15;0.88;;;3.30;99.90;;;;;;5115148;28;20042;-62
2021/12/03 02:17:37;;;;;;;2.30;1.10;;;1.80;99.90;;;;;;5097219;28;20048;-62
2021/12/03 02:20:06;;;;;;;2.05;0.80;;;1.60;99.90;;;;;;5115058;28;20479;-62
2021/12/03 02:22:32;;;;;;;1.88;0.90;;;1.80;99.90;;;;;;5097893;28;20058;-62
2021/12/03 02:24:58;;;;;;;3.28;0.70;;;2.00;99.90;;;;;;5114988;28;20380;-62
2021/12/03 02:27:24;;;;;;;2.20;0.90;;;2.70;99.90;;;;;;5096681;28;20043;-62
2021/12/03 02:29:49;;;;;;;1.63;0.80;;;1.80;99.90;;;;;;5115171;28;20044;-62
2021/12/03 02:32:15;;;;;;;2.63;0.90;;;1.90;99.90;;;;;;5114815;28;20096;-62
2021/12/03 02:34:41;;;;;;;4.38;1.10;;;3.00;99.90;;;;;;5115034;28;20375;-62
2021/12/03 02:37:07;;;;;;;2.85;0.80;;;2.00;99.90;;;;;;5114712;28;20450;-62
2021/12/03 02:39:32;;;;;;;1.80;1.00;;;2.30;99.90;;;;;;5114432;28;20126;-62
2021/12/03 02:41:58;;;;;;;4.30;1.30;;;1.80;99.90;;;;;;5114650;28;20079;-62
2021/12/03 02:44:24;;;;;;;3.78;1.30;;;3.00;99.90;;;;;;5114626;28;20043;-62
2021/12/03 02:46:50;;;;;;;3.25;1.20;;;2.80;99.90;;;;;;5115081;28;20447;-62
2021/12/03 02:49:16;;;;;;;2.60;1.27;;;3.50;99.90;;;;;;5114702;28;20404;-63
2021/12/03 02:51:42;;;;;;;3.70;1.30;;;2.10;99.90;;;;;;5114371;28;20040;-62
2021/12/03 02:54:10;;;;;;;3.35;1.50;;;1.90;99.90;;;;;;5114581;28;20112;-62
2021/12/03 02:56:36;;;;;;;3.03;1.23;;;2.10;99.90;;;;;;5114335;28;20039;-62
2021/12/03 02:59:03;;;;;;;4.80;1.38;;;1.60;99.90;;;;;;5114368;28;20039;-62
2021/12/03 03:01:29;;;;;;;5.00;1.77;;;2.10;99.90;;;;;;5113385;28;20489;-62
2021/12/03 03:03:55;;;;;;;3.80;1.40;;;4.00;99.90;;;;;;5096884;28;20051;-61
2021/12/03 03:06:20;;;;;;;2.50;1.63;;;2.10;99.90;;;;;;5096158;28;20058;-61
2021/12/03 03:08:48;;;;;;;4.10;1.88;;;2.00;99.90;;;;;;5114167;28;20047;-61
2021/12/03 03:11:16;;;;;;;3.05;1.20;;;2.10;99.90;;;;;;5114200;28;20044;-62
2021/12/03 03:13:42;;;;;;;4.03;1.15;;;2.10;99.90;;;;;;5114390;28;20387;-62
2021/12/03 03:16:08;;;;;;;2.80;1.30;;;2.10;99.90;;;;;;5113782;28;20126;-61
2021/12/03 03:18:35;;;;;;;4.60;1.33;;;2.80;99.90;;;;;;5096469;28;20043;-62
2021/12/03 03:21:02;;;;;;;6.10;1.75;;;2.20;99.90;;;;;;5113966;28;20054;-61
2021/12/03 03:23:29;;;;;;;3.88;1.75;;;3.60;99.90;;;;;;5113559;28;20134;-61
2021/12/03 03:25:55;;;;;;;4.53;1.90;;;2.60;99.90;;;;;;5114009;28;20106;-62
2021/12/03 03:28:22;;;;;;;4.05;2.05;;;2.20;99.90;;;;;;5114207;28;20471;-62
2021/12/03 03:30:50;;;;;;;5.32;2.60;;;2.50;99.90;;;;;;5095958;28;20051;-62
2021/12/03 03:33:18;;;;;;;6.72;2.88;;;2.70;99.90;;;;;;5096049;28;20051;-62
2021/12/03 03:35:43;;;;;;;5.13;3.10;;;2.20;99.90;;;;;;5096547;28;20050;-62
2021/12/03 03:38:10;;;;;;;7.55;3.42;;;2.70;99.90;;;;;;5095884;28;20126;-62
2021/12/03 03:40:38;;;;;;;8.98;4.38;;;2.90;99.90;;;;;;5113842;28;20104;-62
2021/12/03 03:43:06;;;;;;;8.68;4.13;;;2.40;99.90;;;;;;5113818;28;20108;-62
2021/12/03 03:45:33;;;;;;;8.63;5.18;;;2.00;99.90;;;;;;5096246;28;20483;-62
2021/12/03 03:47:59;;;;;;;8.32;5.55;;;2.80;99.90;;;;;;5113198;28;20399;-63
2021/12/03 03:50:26;;;;;;;7.93;5.20;;;2.40;99.90;;;;;;5113776;28;20391;-62
2021/12/03 03:52:54;;;;;;;11.57;6.72;;;3.00;99.90;;;;;;5113541;28;20071;-62
2021/12/03 03:55:21;;;;;;;10.95;6.47;;;2.00;99.90;;;;;;5096409;28;20124;-62
2021/12/03 03:57:48;;;;;;;9.23;6.22;;;2.30;99.90;;;;;;5113672;28;20059;-62
2021/12/03 04:00:21;;;;;;;9.40;6.47;;;1.90;99.90;;;;;;5113684;28;20394;-62
2021/12/03 04:02:47;;;;;;;12.00;6.97;;;2.20;99.90;;;;;;5114045;28;20110;-62
2021/12/03 04:05:13;;;;;;;10.20;6.97;;;2.10;99.90;;;;;;5113542;28;20503;-62
2021/12/03 04:07:40;;;;;;;8.65;7.25;;;2.10;99.90;;;;;;5095433;28;20050;-62
2021/12/03 04:10:07;;;;;;;11.52;7.55;;;2.70;99.90;;;;;;5113609;28;20084;-62
2021/12/03 04:12:34;;;;;;;11.63;7.63;;;2.10;99.90;;;;;;5115711;28;20047;-62
2021/12/03 04:14:59;;;;;;;11.77;8.27;;;2.10;99.90;;;;;;5117381;28;20122;-62
2021/12/03 04:17:26;;;;;;;10.02;8.35;;;2.30;99.90;;;;;;5117420;28;20519;-62
2021/12/03 04:19:52;;;;;;;11.82;9.38;;;2.10;99.90;;;;;;5118169;28;20050;-62
2021/12/03 04:22:23;;;;;;;12.80;8.95;;;3.10;99.90;;;;;;5099183;28;20485;-62
2021/12/03 04:24:50;;;;;;;14.18;9.40;;;2.20;99.90;;;;;;5117796;28;20043;-62
2021/12/03 04:27:16;;;;;;;12.18;9.02;;;2.30;99.90;;;;;;5117088;28;20096;-63
2021/12/03 04:29:42;;;;;;;12.10;9.00;;;2.60;99.90;;;;;;5117079;28;20111;-63
2021/12/03 04:32:08;;;;;;;11.55;8.35;;;2.90;99.90;;;;;;5117037;28;20047;-63
2021/12/03 04:34:35;;;;;;;11.85;9.15;;;2.80;99.90;;;;;;5117040;28;20051;-63
2021/12/03 04:37:01;;;;;;;10.18;8.15;;;2.20;99.90;;;;;;5116883;28;20040;-63
2021/12/03 04:39:27;;;;;;;10.52;7.63;;;2.20;99.90;;;;;;5117435;28;20383;-63
2021/12/03 04:41:52;;;;;;;10.30;8.45;;;3.10;99.90;;;;;;5117426;28;20048;-63
2021/12/03 04:44:18;;;;;;;13.50;9.02;;;2.20;99.90;;;;;;5117155;28;20390;-62
2021/12/03 04:46:44;;;;;;;14.65;9.10;;;2.30;99.90;;;;;;5117297;28;20360;-63
2021/12/03 04:49:10;;;;;;;12.63;8.48;;;2.20;99.90;;;;;;5116852;28;20165;-62
2021/12/03 04:51:35;;;;;;;11.52;7.72;;;2.70;99.90;;;;;;5098354;28;20054;-63
2021/12/03 04:54:01;;;;;;;12.60;8.18;;;2.20;99.90;;;;;;5116691;28;20411;-63
2021/12/03 04:56:27;;;;;;;11.77;7.93;;;2.20;99.90;;;;;;5098584;28;20062;-63
2021/12/03 04:58:53;;;;;;;11.05;7.63;;;2.60;99.90;;;;;;5116553;28;20114;-63
2021/12/03 05:01:18;;;;;;;12.93;7.35;;;2.10;99.90;;;;;;5098828;28;20043;-63
2021/12/03 05:03:44;;;;;;;11.18;7.65;;;2.60;99.90;;;;;;5098709;28;20143;-62
2021/12/03 05:06:15;;;;;;;9.68;6.72;;;2.20;99.90;;;;;;5116268;28;20054;-61
2021/12/03 05:08:41;;;;;;;13.45;7.88;;;2.50;99.90;;;;;;5116510;28;20086;-62
2021/12/03 05:11:07;;;;;;;9.27;7.03;;;2.10;99.90;;;;;;5116904;28;20040;-62
2021/12/03 05:13:34;;;;;;;9.70;7.93;;;3.10;99.90;;;;;;5116263;28;20035;-62
2021/12/03 05:16:01;;;;;;;9.35;7.50;;;2.40;99.90;;;;;;5116476;28;20043;-61
2021/12/03 05:18:29;;;;;;;11.63;8.20;;;2.80;99.90;;;;;;5116278;28;20118;-63
2021/12/03 05:20:59;;;;;;;9.57;7.20;;;2.10;99.90;;;;;;5116708;28;20044;-63
2021/12/03 05:23:26;;;;;;;10.15;7.18;;;3.00;99.90;;;;;;5115459;28;20107;-62
2021/12/03 05:25:53;;;;;;;10.95;7.60;;;2.10;99.90;;;;;;5115873;28;20056;-62
2021/12/03 05:28:19;;;;;;;12.38;7.43;;;2.10;99.90;;;;;;5115895;28;20088;-62
2021/12/03 05:30:45;;;;;;;11.45;7.72;;;2.20;99.90;;;;;;5116470;28;20051;-62
2021/12/03 05:33:11;;;;;;;11.90;7.88;;;2.50;99.90;;;;;;5116441;28;20048;-62
2021/12/03 05:35:37;;;;;;;9.88;7.78;;;2.10;99.90;;;;;;5116286;28;20039;-62
2021/12/03 05:38:03;;;;;;;9.50;8.13;;;1.60;99.90;;;;;;5115805;28;20112;-62
2021/12/03 05:40:29;;;;;;;11.20;8.13;;;1.90;99.90;;;;;;5115764;28;20054;-62
2021/12/03 05:42:56;;;;;;;9.70;7.45;;;1.70;99.90;;;;;;5116225;28;20047;-62
2021/12/03 05:45:25;;;;;;;10.90;7.88;;;2.00;99.90;;;;;;5115587;28;20094;-62
2021/12/03 05:47:52;;;;;;;9.20;7.07;;;2.00;99.90;;;;;;5115778;28;20075;-62
2021/12/03 05:50:19;;;;;;;9.05;7.68;;;1.70;99.90;;;;;;5064250;28;20105;-62
2021/12/03 05:52:46;;;;;;;10.02;8.13;;;2.70;99.90;;;;;;5097278;28;20047;-62
2021/12/03 05:55:12;;;;;;;12.27;7.97;;;1.70;99.90;;;;;;5116173;28;20105;-62
2021/12/03 05:57:38;;;;;;;7.70;6.90;;;1.90;99.90;;;;;;5115376;28;20039;-62
2021/12/03 06:00:09;;;;;;;9.25;7.90;;;2.80;99.90;;;;;;5115905;28;20043;-62
2021/12/03 06:02:35;;;;;;;9.50;7.53;;;2.00;99.90;;;;;;5097219;28;20055;-62
2021/12/03 06:05:00;;;;;;;9.55;7.68;;;2.00;99.90;;;;;;5115234;28;20384;-62
2021/12/03 06:07:26;;;;;;;10.18;7.25;;;1.60;99.90;;;;;;5115053;28;20039;-62
2021/12/03 06:09:52;;;;;;;9.27;7.63;;;1.80;99.90;;;;;;5115709;28;20063;-62
2021/12/03 06:12:18;;;;;;;10.57;7.28;;;2.00;99.90;;;;;;5114788;28;20042;-62
2021/12/03 06:14:43;;;;;;;9.40;7.47;;;2.70;99.90;;;;;;5115084;28;20063;-62
2021/12/03 06:17:12;;;;;;;7.57;6.72;;;2.00;99.90;;;;;;5096792;28;20040;-62
2021/12/03 06:19:39;;;;;;;9.80;7.18;;;4.20;99.90;;;;;;5114949;28;20055;-62
2021/12/03 06:22:05;;;;;;;9.52;6.82;;;1.60;99.90;;;;;;5114891;28;20051;-62
2021/12/03 06:24:31;;;;;;;7.50;6.10;;;3.60;99.90;;;;;;5114848;28;20047;-62
2021/12/03 06:26:56;;;;;;;14.15;7.03;;;1.80;99.90;;;;;;5115331;28;20094;-63
2021/12/03 06:29:22;;;;;;;9.73;7.10;;;2.50;99.90;;;;;;5114779;28;20479;-63
2021/12/03 06:31:48;;;;;;;11.52;6.97;;;2.00;99.90;;;;;;5114787;28;20044;-62
2021/12/03 06:34:14;;;;;;;9.00;7.32;;;1.50;99.90;;;;;;5114381;28;20552;-63
2021/12/03 06:36:39;;;;;;;9.23;7.57;;;1.60;99.90;;;;;;5114343;28;20044;-63
2021/12/03 06:39:05;;;;;;;9.30;6.93;;;3.70;99.90;;;;;;5114710;28;20100;-63
2021/12/03 06:41:31;;;;;;;11.68;6.82;;;1.70;99.90;;;;;;5114491;28;20550;-63
2021/12/03 06:43:57;;;;;;;9.10;7.30;;;2.30;99.90;;;;;;5114580;28;20062;-63
2021/12/03 06:46:23;;;;;;;8.68;6.90;;;1.90;99.90;;;;;;5114677;28;20039;-63
2021/12/03 06:48:49;;;;;;;9.13;6.70;;;1.70;99.90;;;;;;5096597;28;20167;-63
2021/12/03 06:51:15;;;;;;;9.13;6.93;;;1.60;99.90;;;;;;5114284;28;20047;-63
2021/12/03 06:53:44;;;;;;;11.15;7.57;;;2.00;99.90;;;;;;5114241;28;20058;-63
2021/12/03 06:56:19;;;;;;;8.85;7.63;;;1.70;99.90;;;;;;5114414;28;20113;-63
2021/12/03 06:58:45;;;;;;;10.13;7.43;;;1.90;99.90;;;;;;5097695;28;20051;-63
2021/12/03 07:01:10;;;;;;;8.10;6.75;;;2.30;99.90;;;;;;5114443;28;20043;-63
2021/12/03 07:03:36;;;;;;;7.95;6.75;;;1.80;99.90;;;;;;5096112;28;20395;-63
2021/12/03 07:06:02;;;;;;;7.90;6.15;;;3.00;99.90;;;;;;5096606;28;20081;-63
2021/12/03 07:08:27;;;;;;;8.70;5.90;;;2.80;99.90;;;;;;5114104;28;20044;-63
2021/12/03 07:10:53;;;;;;;9.02;5.82;;;2.00;99.90;;;;;;5079323;28;20051;-63
2021/12/03 07:13:19;;;;;;;9.88;6.38;;;2.20;99.90;;;;;;5114692;28;20123;-63
2021/12/03 07:15:44;;;;;;;8.90;5.95;;;3.00;99.90;;;;;;5114296;28;20067;-62
2021/12/03 07:18:10;;;;;;;8.18;5.70;;;1.50;99.90;;;;;;5114074;28;20476;-62
2021/12/03 07:20:36;;;;;;;8.48;5.10;;;2.10;99.90;;;;;;5114078;28;20462;-62
2021/12/03 07:23:02;;;;;;;9.43;5.43;;;2.10;99.90;;;;;;5114154;28;20043;-62
2021/12/03 07:25:28;;;;;;;6.82;5.82;;;2.20;99.90;;;;;;5114059;28;20535;-62
2021/12/03 07:27:53;;;;;;;9.30;5.00;;;2.00;99.90;;;;;;5113752;28;20044;-62
2021/12/03 07:30:21;;;;;;;9.88;5.10;;;2.20;99.90;;;;;;5113763;28;20050;-62
2021/12/03 07:32:47;;;;;;;8.23;5.45;;;2.00;99.90;;;;;;5113538;28;20066;-62
2021/12/03 07:35:13;;;;;;;7.60;5.07;;;2.20;99.90;;;;;;5096145;28;20138;-62
2021/12/03 07:37:42;;;;;;;8.20;5.30;;;2.30;99.90;;;;;;5095821;28;20484;-62
2021/12/03 07:40:09;;;;;;;7.88;5.25;;;2.30;99.90;;;;;;5113632;28;20483;-62
2021/12/03 07:42:35;;;;;;;9.63;5.70;;;2.30;99.90;;;;;;5113911;28;20043;-62
2021/12/03 07:45:05;;;;;;;6.63;5.32;;;3.00;99.90;;;;;;5113999;28;20088;-62
2021/12/03 07:47:31;;;;;;;10.25;5.88;;;2.30;99.90;;;;;;5115813;28;20391;-63
2021/12/03 07:49:56;;;;;;;7.50;5.05;;;3.30;99.90;;;;;;5099724;28;20036;-62
2021/12/03 07:52:23;;;;;;;8.43;5.07;;;2.80;99.90;;;;;;5118849;28;20040;-62
2021/12/03 07:54:49;;;;;;;8.05;5.40;;;3.70;99.90;;;;;;5118144;28;20101;-62
2021/12/03 07:57:15;;;;;;;8.75;5.22;;;2.20;99.90;;;;;;5117891;28;20079;-62
2021/12/03 07:59:42;;;;;;;9.50;5.68;;;3.60;99.90;;;;;;5117798;28;20043;-62
2021/12/03 08:02:07;;;;;;;9.52;5.85;;;2.40;99.90;;;;;;5117823;28;20047;-62
2021/12/03 08:04:33;;;;;;;7.82;4.72;;;2.40;99.90;;;;;;5117784;28;20126;-62
2021/12/03 08:07:00;;;;;;;8.60;4.80;;;3.10;99.90;;;;;;5117621;28;20147;-62
2021/12/03 08:09:27;;;;;;;8.13;5.00;;;3.10;99.90;;;;;;5117694;28;20079;-62
2021/12/03 08:11:53;;;;;;;9.45;5.38;;;2.70;99.90;;;;;;5117316;28;20491;-62
2021/12/03 08:14:18;;;;;;;9.63;5.38;;;3.00;99.90;;;;;;5117606;28;20050;-62
2021/12/03 08:16:44;;;;;;;9.30;5.65;;;2.20;99.90;;;;;;5099630;28;20096;-63
2021/12/03 08:19:10;;;;;;;9.18;5.32;;;2.40;99.90;;;;;;5117500;28;20130;-62
2021/12/03 08:21:36;;;;;;;9.32;5.50;;;3.90;99.90;;;;;;5099767;28;20048;-62
2021/12/03 08:24:02;;;;;;;9.45;5.65;;;2.50;99.90;;;;;;5117095;28;20096;-62
2021/12/03 08:26:29;;;;;;;8.43;5.22;;;2.50;99.90;;;;;;5117832;28;20051;-62
2021/12/03 08:28:55;;;;;;;10.63;5.75;;;2.50;99.90;;;;;;5099435;28;20043;-63
2021/12/03 08:31:21;;;;;;;8.10;5.70;;;2.50;99.90;;;;;;5117323;28;20044;-62
2021/12/03 08:33:47;;;;;;;8.60;5.53;;;4.10;99.90;;;;;;5117290;28;20055;-63
2021/12/03 08:36:14;;;;;;;8.73;5.80;;;2.70;99.90;;;;;;5116869;28;20499;-62
2021/12/03 08:38:40;;;;;;;9.10;6.00;;;2.50;99.90;;;;;;5117972;28;20380;-62
2021/12/03 08:41:07;;;;;;;10.80;6.05;;;4.10;99.90;;;;;;5098892;28;20044;-62
2021/12/03 08:43:33;;;;;;;13.27;6.25;;;2.50;99.90;;;;;;5117029;28;20134;-62
2021/12/03 08:46:07;;;;;;;8.57;5.95;;;2.30;99.90;;;;;;5117049;28;20165;-62
2021/12/03 08:48:37;;;;;;;13.50;6.50;;;2.90;99.90;;;;;;5116961;28;20050;-62
2021/12/03 08:56:26;;;;;;;9.35;6.70;;;4.10;99.90;;;;;;5117619;28;20481;-63
2021/12/03 08:58:51;;;;;;;11.55;7.47;;;2.30;99.90;;;;;;5115326;28;20047;-64
2021/12/03 09:01:17;;;;;;;14.80;7.50;;;3.10;99.90;;;;;;5116578;28;20050;-62
2021/12/03 09:03:43;;;;;;;12.48;7.53;;;2.70;99.90;;;;;;5116574;28;20051;-62
2021/12/03 09:06:08;;;;;;;12.80;7.70;;;3.70;99.90;;;;;;5098301;28;20130;-62
2021/12/03 09:08:34;;;;;;;17.23;10.40;;;3.20;99.90;;;;;;5116373;28;20040;-62
2021/12/03 09:11:00;;;;;;;22.08;11.32;;;3.20;99.90;;;;;;5116481;28;20126;-62
2021/12/03 09:13:25;;;;;;;13.70;9.38;;;4.20;99.90;;;;;;5116699;28;20391;-62
2021/12/03 09:15:58;;;;;;;13.25;8.48;;;2.70;99.90;;;;;;5116359;28;20048;-62
2021/12/03 09:20:55;;;;;;;15.73;8.73;;;3.00;99.90;;;;;;5098293;28;20525;-62
2021/12/03 09:24:08;;;;;;;15.65;9.68;;;2.80;99.90;;;;;;5116806;28;20376;-62
2021/12/03 09:26:13;;;;;;;15.65;9.80;;;3.10;99.90;;;;;;5105302;28;20099;-62
2021/12/03 09:28:42;;;;;;;16.30;10.65;;;2.70;99.90;;;;;;5098731;28;20467;-62
2021/12/03 09:31:10;;;;;;;19.45;12.85;;;3.40;99.90;;;;;;5097895;28;20075;-63
2021/12/03 09:33:39;;;;;;;17.35;10.57;;;2.40;99.90;;;;;;5116093;28;20058;-62
2021/12/03 09:36:06;;;;;;;19.70;10.48;;;2.80;99.90;;;;;;5115936;28;20611;-62
2021/12/03 09:38:34;;;;;;;19.05;11.13;;;2.80;99.90;;;;;;5097768;28;20056;-62
2021/12/03 09:41:08;;;;;;;18.02;10.48;;;3.40;99.90;;;;;;5116714;28;20115;-62
2021/12/03 09:43:37;;;;;;;15.30;10.50;;;2.90;99.90;;;;;;5115844;28;20498;-62
2021/12/03 09:46:13;;;;;;;17.80;11.88;;;2.90;99.90;;;;;;5115806;28;20402;-62
2021/12/03 09:51:27;;;;;;;22.05;13.02;;;2.90;99.90;;;;;;5115334;28;20112;-62
2021/12/03 09:56:31;;;;;;;21.27;12.48;;;2.80;99.90;;;;;;5115426;28;20048;-62
2021/12/03 10:15:09;;;;;;;21.60;12.15;;;3.00;99.90;;;;;;5115078;28;20422;-63
2021/12/03 10:17:47;;;;;;;23.20;13.00;;;3.10;99.90;;;;;;5115580;28;20131;-63
2021/12/03 10:40:28;;;;;;;24.38;13.32;;;3.20;99.90;;;;;;5114666;28;20077;-63
2021/12/03 10:46:02;;;;;;;23.80;12.25;;;3.20;99.90;;;;;;5113024;28;20073;-63
2021/12/03 10:48:47;;;;;;;27.38;12.88;;;3.30;99.90;;;;;;5091490;28;20132;-63
2021/12/03 13:08:34;;;;;;;5.53;2.78;;;3.70;99.90;;;;;;5116235;28;20514;-63
2021/12/03 14:06:16;;;;;;;7.32;3.88;;;3.50;99.90;;;;;;5115537;28;20058;-63
2021/12/03 14:33:41;;;;;;;7.35;3.72;;;3.90;99.90;;;;;;5115001;28;20101;-63
2021/12/03 14:46:11;;;;;;;8.77;3.90;;;3.50;99.90;;;;;;5115278;28;20485;-63
2021/12/03 14:48:54;;;;;;;8.65;4.03;;;3.70;99.90;;;;;;5115215;28;20051;-65
2021/12/03 14:51:47;;;;;;;9.15;3.95;;;3.60;99.90;;;;;;5114651;28;20051;-64
2021/12/03 14:56:47;;;;;;;5.63;3.10;;;3.60;99.90;;;;;;5114442;28;20050;-64
2021/12/03 14:59:23;;;;;;;7.43;3.65;;;5.20;99.90;;;;;;5096417;28;20054;-63
2021/12/03 15:02:11;;;;;;;6.90;3.63;;;3.90;99.90;;;;;;5113963;28;20052;-63
2021/12/03 15:04:53;;;;;;;10.43;3.55;;;3.50;99.90;;;;;;5114475;28;20054;-64
2021/12/03 15:07:23;;;;;;;5.40;4.40;;;3.70;99.90;;;;;;5096511;28;20058;-63
2021/12/03 15:09:52;;;;;;;10.05;3.85;;;5.00;99.90;;;;;;5114199;28;20106;-64
2021/12/03 15:25:55;;;;;;;7.57;3.72;;;4.50;99.90;;;;;;5095762;28;20051;-64
2021/12/03 15:33:48;;;;;;;9.48;5.00;;;4.30;99.90;;;;;;5113585;28;20055;-63
2021/12/03 15:36:20;;;;;;;7.30;4.80;;;4.60;99.90;;;;;;5113480;28;20051;-64
2021/12/03 15:57:59;;;;;;;16.58;13.10;;;4.40;99.90;;;;;;5113647;28;20048;-63
2021/12/03 16:04:14;;;;;;;64.07;58.38;;;4.60;99.90;;;;;;5113793;28;20383;-64
2021/12/03 16:06:22;;;;;;;15.48;13.90;;;4.20;99.90;;;;;;5077440;28;20126;-64
2021/12/03 16:08:49;;;;;;;16.58;13.68;;;4.70;99.90;;;;;;5115885;28;20119;-64
2021/12/03 16:13:57;;;;;;;11.37;9.60;;;4.10;99.90;;;;;;5117300;28;20077;-64
2021/12/03 16:46:22;;;;;;;9.93;7.07;;;4.30;99.90;;;;;;5117112;28;20134;-65
2021/12/03 16:53:46;;;;;;;10.25;8.07;;;4.10;99.90;;;;;;5116262;28;20077;-65
2021/12/03 16:56:18;;;;;;;11.05;7.78;;;4.20;99.90;;;;;;5116311;28;20051;-65
2021/12/03 16:58:44;;;;;;;9.05;6.72;;;4.20;99.90;;;;;;5117162;28;20082;-65
2021/12/03 17:02:03;;;;;;;16.00;13.98;;;4.20;99.90;;;;;;5116195;28;20491;-65
2021/12/03 17:47:05;;;;;;;12.25;9.30;;;4.40;99.90;;;;;;5115948;28;20455;-64
2021/12/03 17:57:30;;;;;;;13.38;9.25;;;4.40;99.90;;;;;;5115096;28;20048;-65
2021/12/03 17:59:57;;;;;;;12.25;10.85;;;4.70;99.90;;;;;;5081014;28;20055;-64
2021/12/03 18:02:38;;;;;;;12.38;9.00;;;4.50;99.90;;;;;;5115078;28;20051;-64
2021/12/03 18:08:07;;;;;;;12.45;9.60;;;4.40;99.90;;;;;;5114843;28;20104;-65
2021/12/03 18:13:44;;;;;;;31.77;24.80;;;4.90;99.90;;;;;;5097619;28;20470;-65
2021/12/03 18:54:16;;;;;;;15.93;10.32;;;5.00;99.90;;;;;;5096371;28;20062;-64
2021/12/03 18:56:47;;;;;;;17.45;12.30;;;4.80;99.90;;;;;;5114091;28;20048;-64
2021/12/03 18:59:14;;;;;;;18.05;14.13;;;5.00;99.90;;;;;;5096711;28;20048;-65
2021/12/03 19:01:40;;;;;;;16.77;11.68;;;5.20;99.90;;;;;;5114481;28;20097;-65
2021/12/03 19:06:53;;;;;;;15.80;10.85;;;5.00;99.90;;;;;;5113738;28;20062;-64
2021/12/03 19:09:27;;;;;;;14.50;10.65;;;5.60;99.90;;;;;;5114138;28;20054;-65
2021/12/03 19:12:01;;;;;;;14.98;11.13;;;4.80;99.90;;;;;;5113875;28;20051;-64
2021/12/03 19:14:31;;;;;;;16.30;12.27;;;4.70;99.90;;;;;;5114093;28;20061;-64
2021/12/03 19:16:57;;;;;;;18.90;13.68;;;4.70;99.90;;;;;;5113730;28;20523;-64
2021/12/03 19:19:23;;;;;;;17.98;11.20;;;5.00;99.90;;;;;;5113697;28;20040;-64
2021/12/03 19:21:53;;;;;;;18.20;13.02;;;4.80;99.90;;;;;;5095758;28;20062;-64
2021/12/03 19:24:19;;;;;;;18.98;12.60;;;4.80;99.90;;;;;;5114475;28;20043;-64
2021/12/03 19:26:45;;;;;;;18.40;11.70;;;4.70;99.90;;;;;;5114088;28;20040;-65
2021/12/03 19:29:19;;;;;;;27.35;19.35;;;5.50;99.90;;;;;;5114171;28;20383;-65
2021/12/03 19:31:50;;;;;;;34.42;30.25;;;4.80;99.90;;;;;;5113509;28;20043;-65
2021/12/03 19:34:18;;;;;;;21.88;15.77;;;4.90;99.90;;;;;;5114170;28;20043;-65
2021/12/03 19:36:45;;;;;;;18.42;13.60;;;4.80;99.90;;;;;;5114022;28;20049;-65
2021/12/03 19:39:14;;;;;;;19.92;14.10;;;5.60;99.90;;;;;;5113529;28;20054;-64
2021/12/03 19:44:12;;;;;;;18.17;13.05;;;4.80;99.90;;;;;;5116560;28;20055;-64
2021/12/03 19:46:43;;;;;;;19.17;14.40;;;4.80;99.90;;;;;;5117963;28;20047;-64
2021/12/03 19:51:46;;;;;;;22.42;15.43;;;5.10;99.90;;;;;;5118461;28;20047;-64
2021/12/03 19:54:12;;;;;;;17.05;13.50;;;5.00;99.90;;;;;;5117595;28;20059;-64
2021/12/03 19:56:40;;;;;;;17.98;12.70;;;4.90;99.90;;;;;;5117502;28;20148;-64
2021/12/03 19:59:06;;;;;;;18.90;12.77;;;5.60;99.90;;;;;;5117408;28;20078;-64
2021/12/03 20:01:34;;;;;;;19.35;12.23;;;4.80;99.90;;;;;;5117113;28;20526;-64
2021/12/03 20:04:01;;;;;;;19.77;13.57;;;5.10;99.90;;;;;;5082659;28;20475;-64
2021/12/03 20:06:27;;;;;;;30.38;20.10;;;5.50;99.90;;;;;;5117221;28;20494;-64
2021/12/03 20:08:56;;;;;;;38.63;32.38;;;5.20;99.90;;;;;;5117163;28;20070;-64
2021/12/03 20:11:26;;;;;;;19.58;13.90;;;5.40;99.90;;;;;;5117162;28;20431;-64
2021/12/03 20:13:58;;;;;;;21.70;14.60;;;4.80;99.90;;;;;;5117983;28;20108;-65
2021/12/03 20:16:28;;;;;;;19.63;12.43;;;4.90;99.90;;;;;;5117448;28;20047;-65
2021/12/03 20:19:38;;;;;;;22.52;14.55;;;5.00;99.90;;;;;;5117148;28;20069;-65
2021/12/03 20:21:51;;;;;;;20.20;14.38;;;5.10;99.90;;;;;;5108622;28;20051;-65
2021/12/03 20:29:22;;;;;;;22.65;15.55;;;5.00;99.90;;;;;;5116838;28;20051;-65
2021/12/03 20:31:59;;;;;;;21.17;13.23;;;5.50;99.90;;;;;;5117416;28;20054;-65
2021/12/03 20:34:45;;;;;;;20.58;13.52;;;5.10;99.90;;;;;;5117353;28;20044;-66
2021/12/03 20:37:18;;;;;;;20.20;13.02;;;5.20;99.90;;;;;;5117338;28;20072;-65
2021/12/03 20:39:45;;;;;;;24.08;15.50;;;5.00;99.90;;;;;;5099509;28;20059;-66
2021/12/03 20:44:53;;;;;;;22.85;14.30;;;5.30;99.90;;;;;;5098579;28;20055;-64